Login

malleolo
1 activity; - Last training unit 29/01/2017
29/01/2017 Show to everybody Morning Ride 18.13 831 02:24:24 7.53 Km\h
21/01/2017 Show to everybody Morning Ride 38.57 541 03:10:20 12.16 Km\h
14/01/2017 Show to everybody Morning Ride 12.63 433 01:46:58 7.08 Km\h
07/01/2017 Show to everybody Morning Ride 27.17 855 02:44:25 9.91 Km\h
04/01/2017 Show to everybody Lunch Ride 18.76 88 00:45:44 24.61 Km\h
31/12/2016 Show to everybody Giro mattutino 38.29 625 02:43:51 14.02 Km\h
27/12/2016 Show to everybody 20161227_082933 (1) 41.23 502 02:22:55 17.31 Km\h
22/12/2016 Show to everybody 20161222_085340 (2) 50.72 409 02:33:51 19.78 Km\h
22/12/2016 Show to everybody Giro mattutino 45.72 520 02:32:38 17.97 Km\h
21/12/2016 Show to everybody 2016-12-21 prova lattice (1) 15.48 18 00:45:29 20.42 Km\h
21/12/2016 Show to everybody Giro pomeridiano 15.48 27 00:45:29 20.42 Km\h
16/12/2016 Show to everybody 20161216_092621 (1) 37.46 350 01:44:26 21.52 Km\h
13/12/2016 Show to everybody 20161213_100540 (2) 9.7 101 00:32:40 17.81 Km\h
10/12/2016 Show to everybody levo 71.99 782 02:51:43 25.15 Km\h
08/12/2016 Show to everybody levo 28.6 505 01:33:43 18.31 Km\h
08/12/2016 Show to everybody Giro mattutino 14.98 681 01:33:22 9.63 Km\h
06/12/2016 Show to everybody Giro mattutino 26.12 73 01:20:00 19.59 Km\h
03/12/2016 Show to everybody LEVO - 03_12_16 37.3 759 03:02:20 12.28 Km\h
01/12/2016 Show to everybody LEVO - 01_12_16 14.72 48 00:58:33 15.08 Km\h
01/12/2016 Show to everybody LEVO - 01_12_16 4.55 12 00:17:35 15.52 Km\h
29/11/2016 Show to everybody San Luca 44.22 463 02:27:54 17.94 Km\h
27/11/2016 Show to everybody LEVO - 27_11_16 11.97 41 00:39:54 18 Km\h
27/11/2016 Show to everybody LEVO - 27_11_16 10.91 32 00:39:51 16.43 Km\h
25/11/2016 Show to everybody Prova 1 27.93 125 01:44:52 15.98 Km\h
24/11/2016 Show to everybody prova 9.19 30 00:26:48 20.56 Km\h
04/10/2016 Show to everybody Morning Ride 18.3 778 02:07:22 8.62 Km\h
14/10/2012 Show to everybody Lunch Ride 18.35 603 02:07:56 8.61 Km\h
01/01/1970 Show to everybody Morning Ride 0 0 0 Km\h
01/01/1970 Show to everybody Morning Ride 0 0 0 Km\h
Training units 0
Kilometers 0 Km
Vertical gain 0 mt
Hours of riding 00:00:00
Average speed 0 Km/h
average HR 142
Points 33
Live Tracking »


 
If you stop following this users you will not be able to compare your trainings with his

Now you follow this users and you can compare your trainings


MTB-Mag.com | 2012-2020 Training Camp v.1.6 rev 05